createdAt,value
2022-08-05T00:02:57.143Z,5.9
2022-08-05T00:04:40.298Z,6.4
2022-08-05T00:09:39.172Z,7.5
2022-08-05T00:14:39.925Z,9.9
2022-08-05T00:19:45.747Z,8.0
2022-08-05T00:24:42.563Z,6.8
2022-08-05T00:29:41.752Z,10.5
2022-08-05T00:35:04.788Z,8.9
2022-08-05T00:39:44.310Z,8.3
2022-08-05T00:44:43.663Z,6.8
2022-08-05T00:49:51.668Z,9.2
2022-08-05T00:54:44.942Z,11.4
2022-08-05T00:59:45.668Z,7.3
2022-08-05T01:04:50.474Z,8.4
2022-08-05T01:09:46.959Z,10.6
2022-08-05T01:14:47.593Z,7.3
2022-08-05T01:20:02.368Z,9.6
2022-08-05T01:24:48.894Z,8.5
2022-08-05T01:29:49.580Z,10.0
2022-08-05T01:34:50.945Z,10.2
2022-08-05T01:39:50.871Z,11.7
2022-08-05T01:44:53.942Z,9.2
2022-08-05T01:50:01.641Z,11.1
2022-08-05T01:54:52.992Z,11.5
2022-08-05T01:59:53.589Z,12.1
2022-08-05T02:04:54.212Z,12.8
2022-08-05T02:09:54.890Z,10.0
2022-08-05T02:14:55.510Z,10.7
2022-08-05T02:19:56.390Z,9.9
2022-08-05T02:24:56.781Z,11.8
2022-08-05T02:30:00.027Z,9.4
2022-08-05T02:34:58.741Z,9.5
2022-08-05T02:39:58.743Z,11.0
2022-08-05T02:44:59.543Z,11.5
2022-08-05T02:50:00.151Z,11.4
2022-08-05T02:55:02.065Z,11.6
2022-08-05T03:00:01.640Z,10.4
2022-08-05T03:05:02.109Z,9.4
2022-08-05T03:10:02.750Z,9.2
2022-08-05T03:15:03.509Z,12.7
2022-08-05T03:20:03.998Z,10.7
2022-08-05T03:25:33.700Z,12.9
2022-08-05T03:30:07.243Z,12.2
2022-08-05T03:35:06.172Z,12.1
2022-08-05T03:40:06.653Z,11.0
2022-08-05T03:45:21.891Z,11.2
2022-08-05T03:50:07.867Z,8.3
2022-08-05T03:56:06.066Z,10.3
2022-08-05T04:00:09.141Z,11.1
2022-08-05T04:05:10.276Z,12.9
2022-08-05T04:10:10.640Z,9.9
2022-08-05T04:15:15.621Z,11.8
2022-08-05T04:20:11.972Z,13.3
2022-08-05T04:25:12.662Z,12.5
2022-08-05T04:30:13.198Z,11.4
2022-08-05T04:35:17.678Z,14.3
2022-08-05T04:40:14.565Z,13.3
2022-08-05T04:45:31.075Z,13.8
2022-08-05T04:50:15.950Z,10.9
2022-08-05T04:55:16.490Z,11.2
2022-08-05T05:00:17.169Z,13.9
2022-08-05T05:05:28.715Z,12.4
2022-08-05T05:10:18.630Z,11.7
2022-08-05T05:15:56.141Z,16.0
2022-08-05T05:20:20.384Z,17.7
2022-08-05T05:25:20.555Z,12.5
2022-08-05T05:30:30.701Z,14.2
2022-08-05T05:35:22.313Z,15.6
2022-08-05T05:40:22.745Z,11.9
2022-08-05T05:45:23.149Z,12.1
2022-08-05T05:50:24.032Z,11.2
2022-08-05T05:55:24.474Z,10.5
2022-08-05T06:00:31.465Z,12.5
2022-08-05T06:05:25.765Z,8.9
2022-08-05T06:10:29.456Z,9.4
2022-08-05T06:16:30.644Z,6.0
2022-08-05T06:20:28.099Z,6.5
2022-08-05T06:26:12.661Z,7.7
2022-08-05T06:30:28.732Z,4.2
2022-08-05T06:36:03.643Z,7.5
2022-08-05T06:40:32.419Z,7.8
2022-08-05T06:44:32.579Z,7.8
2022-08-05T06:46:03.899Z,6.5
2022-08-05T06:50:31.634Z,7.0
2022-08-05T06:55:36.327Z,5.9
2022-08-05T07:00:32.756Z,7.0
2022-08-05T07:05:37.832Z,6.4
2022-08-05T07:10:33.981Z,6.6
2022-08-05T07:16:00.928Z,5.4
2022-08-05T07:20:38.778Z,10.8
2022-08-05T07:25:54.818Z,4.8
2022-08-05T07:30:38.987Z,5.7
2022-08-05T07:36:05.299Z,7.9
2022-08-05T07:40:37.843Z,6.4
2022-08-05T07:45:56.564Z,7.3
2022-08-05T07:50:39.044Z,6.3
2022-08-05T07:56:05.689Z,6.8
2022-08-05T08:00:40.655Z,8.5
2022-08-05T08:05:43.594Z,5.4
2022-08-05T08:10:41.579Z,7.9
2022-08-05T08:16:35.199Z,4.4
2022-08-05T08:21:01.866Z,4.4
2022-08-05T08:26:00.853Z,3.3
2022-08-05T08:30:47.927Z,3.6
2022-08-05T08:35:52.828Z,1.5
2022-08-05T08:40:51.698Z,7.3
2022-08-05T08:45:46.590Z,4.0
2022-08-05T08:51:22.427Z,4.6
2022-08-05T08:56:04.981Z,3.5
2022-08-05T09:00:48.538Z,6.6
2022-08-05T09:06:08.172Z,6.8
2022-08-05T09:10:49.551Z,5.4
2022-08-05T09:15:50.290Z,7.1
2022-08-05T09:20:51.002Z,5.2
2022-08-05T09:26:03.274Z,6.2
2022-08-05T09:30:52.164Z,5.8
2022-08-05T09:35:52.892Z,5.2
2022-08-05T09:40:53.995Z,6.3
2022-08-05T09:46:06.728Z,5.2
2022-08-05T09:50:54.884Z,4.6
2022-08-05T09:56:03.647Z,4.3
2022-08-05T10:00:56.385Z,6.8
2022-08-05T10:05:57.014Z,7.1
2022-08-05T10:10:58.109Z,9.0
2022-08-05T10:15:58.594Z,7.1
2022-08-05T10:20:59.069Z,5.4
2022-08-05T10:25:59.910Z,5.5
2022-08-05T10:32:53.398Z,4.4
2022-08-05T10:36:01.675Z,6.4
2022-08-05T10:41:01.988Z,9.2
2022-08-05T10:46:06.544Z,6.0
2022-08-05T10:51:22.275Z,6.8
2022-08-05T10:56:14.512Z,5.0
2022-08-05T11:01:04.850Z,8.3
2022-08-05T11:06:05.426Z,8.0
2022-08-05T11:11:14.604Z,6.1
2022-08-05T11:16:06.968Z,8.2
2022-08-05T11:21:11.705Z,7.2
2022-08-05T11:26:09.100Z,6.0
2022-08-05T11:31:09.002Z,4.8
2022-08-05T11:36:09.637Z,3.3
2022-08-05T11:41:35.380Z,4.5
2022-08-05T11:46:30.631Z,4.0
2022-08-05T11:51:11.551Z,4.0
2022-08-05T11:56:12.182Z,4.0
2022-08-05T12:01:12.915Z,3.9
2022-08-05T12:06:13.860Z,4.3
2022-08-05T12:11:20.267Z,4.1
2022-08-05T12:16:15.641Z,4.5
2022-08-05T12:21:15.695Z,4.4
2022-08-05T12:26:16.553Z,4.1
2022-08-05T12:31:23.788Z,4.8
2022-08-05T12:36:17.831Z,4.7
2022-08-05T12:41:18.556Z,3.9
2022-08-05T12:46:22.464Z,4.1
2022-08-05T12:52:10.842Z,4.0
2022-08-05T12:56:34.949Z,2.9
2022-08-05T13:02:02.435Z,3.4
2022-08-05T13:06:21.842Z,6.0
2022-08-05T13:11:59.843Z,4.4
2022-08-05T13:16:25.082Z,5.4
2022-08-05T13:21:28.128Z,6.2
2022-08-05T13:26:30.201Z,7.0
2022-08-05T13:32:03.506Z,4.5
2022-08-05T13:36:25.968Z,5.3
2022-08-05T13:41:37.496Z,3.2
2022-08-05T13:46:43.624Z,5.8
2022-08-05T13:51:28.741Z,3.9
2022-08-05T13:56:28.922Z,6.7
2022-08-05T14:01:44.292Z,3.6
2022-08-05T14:06:30.412Z,3.0
2022-08-05T14:11:31.274Z,3.4
2022-08-05T14:16:32.002Z,3.9
2022-08-05T14:22:08.877Z,2.9
2022-08-05T14:26:38.612Z,4.6
2022-08-05T14:32:03.972Z,4.5
2022-08-05T14:36:34.910Z,5.1
2022-08-05T14:41:35.717Z,5.9
2022-08-05T14:46:37.096Z,6.9
2022-08-05T14:51:37.673Z,7.3
2022-08-05T14:56:38.219Z,8.9
2022-08-05T15:01:48.342Z,6.1
2022-08-05T15:06:40.450Z,5.0
2022-08-05T15:11:51.148Z,9.5
2022-08-05T15:16:40.825Z,5.0
2022-08-05T15:21:41.873Z,5.7
2022-08-05T15:26:42.229Z,4.5
2022-08-05T15:31:42.930Z,5.4
2022-08-05T15:36:43.962Z,6.5
2022-08-05T15:41:57.691Z,6.0
2022-08-05T15:46:45.154Z,5.9
2022-08-05T15:52:13.176Z,5.2
2022-08-05T15:56:46.595Z,5.6
2022-08-05T16:01:52.351Z,8.7
2022-08-05T16:06:48.224Z,6.6
2022-08-05T16:11:52.821Z,7.1
2022-08-05T16:16:49.664Z,4.0
2022-08-05T16:22:00.344Z,4.8
2022-08-05T16:26:51.028Z,6.4
2022-08-05T16:31:56.725Z,7.6
2022-08-05T16:36:52.813Z,7.2
2022-08-05T16:42:27.858Z,9.9
2022-08-05T16:46:55.372Z,9.6
2022-08-05T16:51:57.014Z,12.7
2022-08-05T16:56:55.584Z,5.4
2022-08-05T17:01:56.512Z,7.0
2022-08-05T17:07:00.503Z,8.9
2022-08-05T17:11:59.783Z,10.3
2022-08-05T17:16:58.463Z,12.3
2022-08-05T17:21:59.224Z,11.2
2022-08-05T17:26:59.869Z,12.5
2022-08-05T17:32:03.441Z,13.3
2022-08-05T17:37:01.512Z,11.7
2022-08-05T17:42:18.848Z,12.5
2022-08-05T17:47:02.651Z,11.3
2022-08-05T17:52:03.625Z,11.6
2022-08-05T17:57:04.117Z,11.6
2022-08-05T18:02:10.802Z,11.1
2022-08-05T18:07:05.758Z,10.7
2022-08-05T18:12:06.267Z,10.0
2022-08-05T18:17:08.375Z,9.6
2022-08-05T18:22:11.370Z,9.5
2022-08-05T18:27:18.214Z,11.1
2022-08-05T18:32:12.656Z,10.2
2022-08-05T18:37:12.178Z,11.6
2022-08-05T18:42:11.432Z,10.6
2022-08-05T18:47:12.217Z,9.6
2022-08-05T18:52:12.216Z,8.5
2022-08-05T18:57:15.322Z,6.8
2022-08-05T19:02:26.960Z,9.1
2022-08-05T19:07:14.234Z,8.8
2022-08-05T19:12:14.892Z,6.9
2022-08-05T19:17:15.755Z,7.4
2022-08-05T19:22:17.301Z,10.3
2022-08-05T19:27:17.036Z,7.2
2022-08-05T19:32:17.773Z,6.3
2022-08-05T19:37:18.416Z,10.1
2022-08-05T19:42:18.969Z,6.7
2022-08-05T19:47:19.725Z,7.9
2022-08-05T19:52:30.373Z,7.1
2022-08-05T19:57:48.929Z,7.3
2022-08-05T20:02:21.770Z,6.3
2022-08-05T20:07:46.721Z,8.1
2022-08-05T20:12:23.966Z,6.7
2022-08-05T20:17:24.073Z,6.5
2022-08-05T20:22:27.173Z,10.5
2022-08-05T20:27:26.731Z,5.9
2022-08-05T20:32:26.244Z,7.7
2022-08-05T20:38:07.917Z,8.6
2022-08-05T20:42:28.241Z,9.6
2022-08-05T20:47:31.832Z,10.9
2022-08-05T20:52:29.278Z,11.5
2022-08-05T20:57:43.631Z,14.7
2022-08-05T21:02:30.409Z,11.3
2022-08-05T21:07:51.008Z,12.5
2022-08-05T21:12:31.973Z,11.1
2022-08-05T21:17:32.450Z,12.6
2022-08-05T21:22:33.094Z,14.7
2022-08-05T21:27:38.811Z,12.1
2022-08-05T21:32:34.704Z,12.9
2022-08-05T21:37:35.261Z,13.6
2022-08-05T21:42:43.834Z,14.9
2022-08-05T21:47:56.552Z,14.4
2022-08-05T21:52:37.921Z,13.9
2022-08-05T21:57:42.578Z,15.9
2022-08-05T22:02:38.865Z,13.1
2022-08-05T22:07:59.589Z,12.4
2022-08-05T22:12:40.417Z,15.2
2022-08-05T22:17:56.433Z,17.5
2022-08-05T22:22:41.911Z,17.6
2022-08-05T22:28:10.958Z,14.5
2022-08-05T22:32:43.131Z,12.7
2022-08-05T22:37:58.953Z,16.1
2022-08-05T22:42:53.014Z,12.9
2022-08-05T22:47:49.979Z,15.3
2022-08-05T22:52:46.843Z,13.3
2022-08-05T22:57:46.744Z,11.1
2022-08-05T23:02:47.613Z,13.0
2022-08-05T23:07:50.301Z,12.1
2022-08-05T23:12:51.149Z,9.6
2022-08-05T23:18:01.354Z,8.2
2022-08-05T23:22:50.448Z,7.9
2022-08-05T23:27:58.026Z,9.5
2022-08-05T23:32:51.585Z,5.3
2022-08-05T23:37:52.452Z,7.2
2022-08-05T23:42:53.718Z,7.3
2022-08-05T23:47:59.324Z,6.1
2022-08-05T23:52:54.996Z,5.5
2022-08-05T23:57:55.014Z,7.9
